Flight Track Log - Related Links

Times and Time Zones

All times are in EDT time to prevent confusion due to time zone crossing. See the N34VR flight status page for this flight to view local times or setup timezone preferences in your user account.

Time Position Orientation Groundspeed Altitude Reporting Facility
EDT Latitude Longitude Course Direction KTS MPH feet Rate Location/Type
Sat 02:19:29 PM 26.2003 -80.1378 89° East 168 193 1,300  Level Miami Center
Sat 02:20:00 PM 26.2008 -80.1053 89° East 205 236 2,100 1,435 Climbing Miami Center
Sat 02:21:01 PM 26.2089 -80.0314 83° East 237 273 3,500 1,261 Climbing Miami Center
Sat 02:22:18 PM 26.2214 -79.9300 82° East 258 297 5,000 2,015 Climbing Miami Center
Sat 02:23:18 PM 26.2294 -79.8469 84° East 263 303 8,100 2,650 Climbing Miami Center
Sat 02:24:18 PM 26.2417 -79.7614 81° East 273 314 10,300 2,200 Climbing Miami Center
Sat 02:25:18 PM 26.2497 -79.6689 84° East 285 328 12,500 2,200 Climbing Miami Center
Sat 02:26:18 PM 26.2619 -79.5767 82° East 297 342 14,700 2,050 Climbing Miami Center
Sat 02:27:18 PM 26.2469 -79.4814 100° East 297 342 16,600 1,850 Climbing Miami Center
Sat 02:28:18 PM 26.1875 -79.4081 132° Southeast 283 326 18,400 1,700 Climbing Miami Center
Sat 02:29:18 PM 26.1197 -79.3397 138° Southeast 305 351 20,000 1,650 Climbing Miami Center
Sat 02:30:18 PM 26.0481 -79.2642 137° Southeast 323 372 21,700 1,700 Climbing Miami Center
Sat 02:31:18 PM 25.9803 -79.1864 134° Southeast 349 402 23,400 1,650 Climbing Miami Center
Sat 02:32:18 PM 25.9106 -79.1067 134° Southeast 356 410 25,000 1,000 Climbing Miami Center
Sat 02:33:18 PM 25.8303 -79.0197 136° Southeast 379 436 25,400 500 Climbing Miami Center
Sat 02:34:18 PM 25.7397 -78.9328 139° Southeast 405 466 26,000 1,250 Climbing Miami Center
Sat 02:35:18 PM 25.6553 -78.8367 134° Southeast 421 484 27,900 2,300 Climbing Miami Center
Sat 02:36:18 PM 25.5792 -78.7456 133° Southeast 421 484 30,600 2,250 Climbing Miami Center
Sat 02:37:18 PM 25.5450 -78.6322 108° East 390 449 32,400 1,600 Climbing Miami Center
Sat 02:38:18 PM 25.5297 -78.5122 98° East 373 429 33,800 1,300 Climbing Miami Center
Sat 02:39:18 PM 25.4642 -78.4056 124° Southeast 399 459 35,000 600 Climbing Miami Center
Sat 02:40:18 PM 25.3814 -78.2986 131° Southeast 427 491 35,000  Level Miami Center
Sat 02:41:18 PM 25.2906 -78.1872 132° Southeast 458 527 35,000  Level Miami Center
Sat 02:42:18 PM 25.1914 -78.0761 135° Southeast 481 554 35,000  Level Miami Center
Sat 02:43:18 PM 25.0875 -77.9694 137° Southeast 503 579 35,000  Level Miami Center
Sat 02:44:18 PM 24.9819 -77.8608 137° Southeast 514 592 35,000  Level Miami Center
Sat 02:45:18 PM 24.8739 -77.7544 138° Southeast 519 597 35,000  Level Miami Center
Sat 02:46:18 PM 24.7678 -77.6439 137° Southeast 519 597 35,000 50 Level Miami Center
Sat 02:47:18 PM 24.6597 -77.5358 138° Southeast 519 597 35,100 1,300 Climbing Miami Center
Sat 02:48:18 PM 24.5556 -77.4369 139° Southeast 514 592 37,600 2,150 Climbing Miami Center
Sat 02:49:18 PM 24.4536 -77.3406 139° Southeast 502 578 39,400 1,650 Climbing Miami Center
Sat 02:50:18 PM 24.3578 -77.2467 138° Southeast 482 555 40,900 1,350 Climbing Miami Center
Sat 02:51:18 PM 24.2617 -77.1506 138° Southeast 472 543 42,100 1,300 Climbing Miami Center
Sat 02:52:18 PM 24.1719 -77.0547 136° Southeast 459 528 43,500 850 Climbing Miami Center
Sat 02:53:18 PM 24.0803 -76.9636 138° Southeast 454 522 43,800 300 Climbing Miami Center
Sat 02:54:18 PM 23.9967 -76.8794 137° Southeast 454 522 44,100 500 Climbing Miami Center
Sat 02:55:18 PM 23.9006 -76.7861 138° Southeast 454 522 44,800 450 Climbing Miami Center
Sat 02:56:18 PM 23.8083 -76.6908 137° Southeast 454 522 45,000 100 Climbing Miami Center
Sat 02:57:18 PM 23.7081 -76.5956 139° Southeast 466 536 45,000  Level Miami Center
Sat 02:58:18 PM 23.6053 -76.4961 138° Southeast 475 547 45,000  Level Miami Center
Sat 02:59:18 PM 23.5028 -76.3989 139° Southeast 485 558 45,000  Level Miami Center
Sat 03:00:18 PM 23.4000 -76.3019 139° Southeast 485 558 45,000  Level Miami Center
Sat 03:01:18 PM 23.2972 -76.2006 138° Southeast 485 558 45,000  Level Miami Center
Sat 03:02:18 PM 23.1964 -76.0972 137° Southeast 491 565 45,000  Level Miami Center
Sat 03:03:18 PM 23.0956 -75.9983 138° Southeast 491 565 45,000  Level Miami Center
Sat 03:04:18 PM 22.9925 -75.8975 138° Southeast 491 565 45,000  Level Miami Center
Sat 03:05:18 PM 22.8936 -75.7992 137° Southeast 491 565 45,000  Level Miami Center
Sat 03:06:18 PM 22.7906 -75.7031 139° Southeast 491 565 45,000  Level Miami Center
Sat 03:07:18 PM 22.6894 -75.6047 138° Southeast 491 565 45,000  Level Miami Center
Sat 03:08:18 PM 22.5883 -75.5092 139° Southeast 491 565 45,000  Level Miami Center
Sat 03:09:18 PM 22.4892 -75.4111 138° Southeast 491 565 45,000  Level Miami Center
Sat 03:10:18 PM 22.3858 -75.3136 139° Southeast 491 565 45,000  Level Miami Center
Sat 03:11:18 PM 22.2825 -75.2206 140° Southeast 491 565 45,000  Level Miami Center
Sat 03:12:18 PM 22.1833 -75.1208 137° Southeast 491 565 45,000  Level Miami Center
Sat 03:13:18 PM 22.0778 -75.0258 140° Southeast 491 565 45,000  Level Miami Center
Sat 03:14:18 PM 21.9722 -74.9289 140° Southeast 491 565 45,000  Level Miami Center
Sat 03:15:18 PM 21.8706 -74.8319 138° Southeast 491 565 45,000  Level Miami Center
Sat 03:16:18 PM 21.7669 -74.7350 139° Southeast 491 565 45,000  Level Miami Center
Sat 03:17:18 PM 21.6589 -74.6250 137° Southeast 491 565 45,000  Level Miami Center
Sat 03:18:18 PM 21.5550 -74.5264 139° Southeast 491 565 45,000  Level Miami Center
Sat 03:19:18 PM 21.4533 -74.4300 139° Southeast 491 565 45,000  Level Miami Center
Sat 03:20:18 PM 21.3536 -74.3339 138° Southeast 486 559 45,000  Level Miami Center
Sat 03:21:18 PM 21.2497 -74.2356 139° Southeast 491 565 45,000  Level Miami Center
Sat 03:22:18 PM 21.1481 -74.1419 139° Southeast 491 565 45,000  Level Miami Center
Sat 03:23:18 PM 21.0417 -74.0439 139° Southeast 491 565 45,000  Level Miami Center
Sat 03:24:18 PM 20.9356 -73.9483 140° Southeast 497 572 45,000  Level Miami Center
Sat 03:25:18 PM 20.8317 -73.8506 139° Southeast 492 566 45,000  Level Miami Center
Sat 03:26:18 PM 20.7294 -73.7575 140° Southeast 487 560 45,000  Level Miami Center
Sat 03:27:18 PM 20.6272 -73.6578 138° Southeast 493 567 45,000  Level Miami Center
Sat 03:28:18 PM 20.5211 -73.5631 140° Southeast 493 567 45,000  Level Miami Center
Sat 03:29:18 PM 20.4189 -73.4703 140° Southeast 493 567 45,000  Level Miami Center
Sat 03:30:18 PM 20.3189 -73.3778 139° Southeast 487 560 45,000  Level Miami Center
Sat 03:31:18 PM 20.2144 -73.2875 141° Southeast 487 560 45,000  Level Miami Center
Sat 03:32:18 PM 20.1083 -73.2064 144° Southeast 482 555 45,000  Level Miami Center
Sat 03:33:18 PM 20.0006 -73.1386 149° Southeast 463 533 45,000  Level Miami Center
Sat 03:34:18 PM 19.8883 -73.0689 150° Southeast 463 533 45,000  Level Miami Center
Sat 03:35:18 PM 19.7742 -73.0036 152° Southeast 468 539 45,000  Level Miami Center
Sat 03:36:18 PM 19.6597 -72.9364 151° Southeast 468 539 45,000  Level Miami Center
Sat 03:37:18 PM 19.5436 -72.8692 151° Southeast 468 539 45,000  Level Miami Center
Sat 03:38:18 PM 19.4272 -72.8044 152° Southeast 468 539 45,000  Level Miami Center
Sat 03:39:18 PM 19.3089 -72.7375 152° Southeast 473 544 45,000 50 Level Miami Center
Sat 03:40:18 PM 19.1903 -72.6731 153° Southeast 479 551 45,100 -150 Climbing Miami Center
Sat 03:41:18 PM 19.0719 -72.6042 151° Southeast 479 551 44,700 -50 Descending Miami Center
Sat 03:42:18 PM 18.9594 -72.5353 150° Southeast 488 562 45,000 150 Climbing Miami Center
Sat 03:43:18 PM 18.8389 -72.4667 152° Southeast 481 554 45,000  Level Miami Center
Sat 03:44:18 PM 18.7206 -72.4025 153° Southeast 481 554 45,000  Level Miami Center
Sat 03:45:18 PM 18.6042 -72.3383 152° Southeast 476 548 45,000  Level Miami Center
Sat 03:46:18 PM 18.4856 -72.2636 149° Southeast 483 556 45,000  Level Miami Center
Sat 03:47:18 PM 18.3708 -72.1842 147° Southeast 490 564 45,000  Level Miami Center
Sat 03:48:18 PM 18.2483 -72.1250 155° Southeast 489 563 45,000  Level Miami Center
Sat 03:49:18 PM 18.1297 -72.0528 150° Southeast 489 563 45,000  Level Miami Center
Sat 03:50:18 PM 18.0131 -71.9847 151° Southeast 489 563 45,000  Level Miami Center
Sat 03:51:18 PM 17.9067 -71.9036 144° Southeast 473 544 45,000  Level Miami Center
Sat 03:52:18 PM 17.7761 -71.8514 159° South 494 568 45,000  Level Miami Center
Sat 03:53:18 PM 17.6553 -71.7817 151° Southeast 489 563 45,000  Level Miami Center
Sat 03:54:18 PM 17.5386 -71.7119 150° Southeast 489 563 45,000  Level Miami Center
Sat 03:55:18 PM 17.4222 -71.6422 150° Southeast 489 563 45,000  Level Miami Center
Sat 03:57:00 PM 17.2339 -71.5410 153° Southeast  Level FlightAware Approximate
Sat 04:04:00 PM 16.4582 -71.1264 153° Southeast  Level FlightAware Approximate
Sat 04:05:00 PM 16.3473 -71.0675 153° Southeast  Level FlightAware Approximate
Sat 04:06:00 PM 16.2363 -71.0086 153° Southeast  Level FlightAware Approximate
Sat 04:07:00 PM 16.1254 -70.9498 153° Southeast  Level FlightAware Approximate
Sat 04:08:00 PM 16.0145 -70.8910 153° Southeast  Level FlightAware Approximate
Sat 04:09:00 PM 15.9042 -70.8306 152° Southeast  Level FlightAware Approximate
Sat 04:10:00 PM 15.7942 -70.7700 152° Southeast  Level FlightAware Approximate
Sat 04:11:00 PM 15.6842 -70.7095 152° Southeast  Level FlightAware Approximate
Sat 04:12:00 PM 15.5741 -70.6491 152° Southeast  Level FlightAware Approximate
Sat 04:13:00 PM 15.4641 -70.5888 152° Southeast  Level FlightAware Approximate
Sat 04:14:00 PM 15.3540 -70.5285 152° Southeast  Level FlightAware Approximate
Sat 04:15:00 PM 15.2439 -70.4683 152° Southeast  Level FlightAware Approximate
Sat 04:16:00 PM 15.1338 -70.4081 152° Southeast  Level FlightAware Approximate
Sat 04:17:00 PM 15.0236 -70.3480 152° Southeast  Level FlightAware Approximate
Sat 04:18:00 PM 14.9135 -70.2880 152° Southeast  Level FlightAware Approximate
Sat 04:19:00 PM 14.8033 -70.2280 152° Southeast  Level FlightAware Approximate
Sat 04:20:00 PM 14.6931 -70.1681 152° Southeast  Level FlightAware Approximate
Sat 04:21:00 PM 14.5829 -70.1083 152° Southeast  Level FlightAware Approximate
Sat 04:22:00 PM 14.4727 -70.0485 152° Southeast  Level FlightAware Approximate
Sat 04:23:00 PM 14.3598 -69.9993 178° South  Level FlightAware Approximate
Sat 04:24:00 PM 14.2354 -69.9953 178° South  Level FlightAware Approximate
Sat 04:25:00 PM 14.1110 -69.9913 178° South  Level FlightAware Approximate
Sat 04:26:00 PM 13.9866 -69.9874 178° South  Level FlightAware Approximate
Sat 04:27:00 PM 13.8622 -69.9835 178° South  Level FlightAware Approximate
Sat 04:28:00 PM 13.7377 -69.9795 178° South  Level FlightAware Approximate
Sat 04:29:00 PM 13.6133 -69.9756 178° South  Level FlightAware Approximate
Sat 04:30:00 PM 13.4889 -69.9717 178° South  Level FlightAware Approximate
Sat 04:31:00 PM 13.3645 -69.9678 178° South  Level FlightAware Approximate
Sat 04:32:00 PM 13.2401 -69.9638 178° South  Level FlightAware Approximate
Sat 04:33:00 PM 13.1156 -69.9599 178° South  Level FlightAware Approximate
Sat 04:34:00 PM 12.9912 -69.9560 178° South  Level FlightAware Approximate
Sat 04:35:00 PM 12.8668 -69.9521 178° South  Level FlightAware Approximate
Sat 04:36:00 PM 12.7424 -69.9464 177° South  Level FlightAware Approximate
Sat 04:37:00 PM 12.6181 -69.9386 177° South  Level FlightAware Approximate
Sat 04:38:00 PM 12.4939 -69.9322 170° South  Level FlightAware Approximate
Sat 04:39:00 PM 12.3714 -69.9099 170° South  Level FlightAware Approximate
Sat 04:40:00 PM 12.2511 -69.8782 162° South  Level FlightAware Approximate
Sat 04:41:00 PM 12.1296 -69.8521 171° South  Level FlightAware Approximate
Sat 04:42:00 PM 12.0098 -69.8179 164° South  Level FlightAware Approximate
Sat 04:43:00 PM 11.8890 -69.7878 169° South  Level FlightAware Approximate
Sat 04:44:00 PM 11.7670 -69.7626 166° South  Level FlightAware Approximate
Sat 04:45:00 PM 11.6467 -69.7300 164° South  Level FlightAware Approximate
Sat 04:46:00 PM 11.5268 -69.6957 164° South  Level FlightAware Approximate
Sat 04:47:00 PM 11.4057 -69.6667 168° South  Level FlightAware Approximate
Sat 04:48:00 PM 11.2838 -69.6406 168° South  Level FlightAware Approximate
Sat 04:49:00 PM 11.1622 -69.6138 168° South  Level FlightAware Approximate
Sat 04:50:00 PM 11.0405 -69.5867 168° South  Level FlightAware Approximate
Sat 04:51:00 PM 10.9189 -69.5597 168° South  Level FlightAware Approximate
Sat 04:52:00 PM 10.7973 -69.5325 164° South  Level FlightAware Approximate
Sat 04:53:00 PM 10.6779 -69.4967 164° South  Level FlightAware Approximate
Sat 04:54:00 PM 10.5576 -69.4644 166° South  Level FlightAware Approximate
Sat 04:55:00 PM 10.4367 -69.4342 166° South  Level FlightAware Approximate
Sat 04:56:00 PM 10.3146 -69.4096 169° South  Level FlightAware Approximate
Sat 04:57:00 PM 10.1937 -69.3833 180° South  Level FlightAware Approximate
Sat 04:58:00 PM 10.0716 -69.3596 166° South  Level FlightAware Approximate
Sat 04:59:00 PM 10.0500 -69.3667 315° West  Level FlightAware Approximate
Sat 05:00:00 PM 10.0428 -69.3586 315° West  Level Estimated
Sat 05:01:00 PM 10.0428 -69.3586 315° West  Level Estimated
Sat 05:02:00 PM 10.0428 -69.3586 315° West  Level Estimated
Sat 05:03:00 PM 10.0428 -69.3586 315° West  Level Estimated
Sat 05:04:00 PM 10.0428 -69.3586 315° West  Level Estimated
Sat 05:05:00 PM 10.0428 -69.3586 315° West  Level Estimated
Sat 05:06:00 PM 10.0428 -69.3586 315° West  Level Estimated
Sat 05:07:00 PM 10.0428 -69.3586 315° West  Level Estimated
Sat 05:08:00 PM 10.0428 -69.3586 315° West  Level Estimated
Sat 05:09:00 PM 10.0428 -69.3586 315° West  Level Estimated
Sat 05:10:00 PM 10.0428 -69.3586 315° West  Level Estimated
Sat 05:11:00 PM 10.0428 -69.3586 315° West  Level Estimated
Sat 05:12:00 PM 10.0428 -69.3586 315° West  Level Estimated
Sat 05:13:00 PM 10.0428 -69.3586 315° West  Level Estimated
Sat 05:14:00 PM 10.0428 -69.3586 315° West  Level Estimated
Sat 05:15:00 PM 10.0428 -69.3586 315° West  Level Estimated
Sat 05:16:00 PM 10.0428 -69.3586 315° West  Level Estimated
Sat 05:17:00 PM 10.0428 -69.3586 315° West  Level Estimated

Login

Don't have an account? Register now (free) for customized features, flight alerts, and more!